• Join FlightAware (Why Join?)
  • Login
  • US Flag 
11:48AM EST


 

Airport Tracker/Info


-or-


 

Live Flight TrackerFlight Track Log ✈ EMD21 ✈ 18-Jun-2013 ✈ KBNA - KMLC

Flight Track Log - Related Links

Times and Time Zones

All times are in EDT time to prevent confusion due to time zone crossing. See the EMD21 flight status page for this flight to view local times or setup timezone preferences in your user account.

Time Position Orientation Groundspeed Altitude Reporting Facility
EDT Latitude Longitude Course Direction KTS MPH feet Rate Location/Type
06:12PM 36.1500 -86.7000 310° West 151 174 1,100  Level Nashville TRACON
06:13PM 36.1833 -86.7500 310° West 162 186 2,500 1,080 Climbing Nashville TRACON
06:14PM 36.2000 -86.8333 284° West 187 215 4,000 960 Climbing Nashville TRACON
06:15PM 36.2167 -86.9000 287° West 190 219 4,900 540 Climbing Nashville TRACON
06:16PM 36.2333 -86.9333 302° West 205 236 5,000 360 Climbing Nashville TRACON
06:17PM 36.2356 -86.9836 273° West 214 246 5,400 660 Climbing Memphis Center
06:18PM 36.2231 -87.0536 258° West 217 250 6,100 720 Climbing Memphis Center
06:19PM 36.2119 -87.1158 258° West 210 242 6,900 720 Climbing Memphis Center
06:20PM 36.1972 -87.1858 255° West 210 242 7,600 720 Climbing Memphis Center
06:21PM 36.1844 -87.2533 257° West 210 242 8,400 660 Climbing Memphis Center
06:22PM 36.1714 -87.3256 257° West 210 242 9,000 600 Climbing Memphis Center
06:23PM 36.1692 -87.3978 268° West 205 236 9,700 840 Climbing Memphis Center
06:24PM 36.1625 -87.4750 264° West 205 236 10,700 900 Climbing Memphis Center
06:25PM 36.1475 -87.5450 255° West 205 236 11,500 840 Climbing Memphis Center
06:26PM 36.1406 -87.6094 262° West 200 230 12,400 780 Climbing Memphis Center
06:27PM 36.1336 -87.6739 262° West 195 224 13,100 660 Climbing Memphis Center
06:28PM 36.1247 -87.7386 260° West 195 224 13,800 480 Climbing Memphis Center
06:29PM 36.1178 -87.8081 263° West 202 232 14,100 60 Climbing Memphis Center
06:30PM 36.1131 -87.8803 265° West 202 232 14,000 -60 Descending Memphis Center
06:31PM 36.0997 -87.9550 258° West 219 252 14,000  Level Memphis Center
06:32PM 36.0908 -88.0300 262° West 219 252 14,000  Level Memphis Center
06:33PM 36.0817 -88.1047 261° West 224 258 14,000  Level Memphis Center
06:34PM 36.0808 -88.1689 269° West 213 245 14,000  Level Memphis Center
06:35PM 36.0697 -88.2436 260° West 219 252 14,000  Level Memphis Center
06:36PM 36.0606 -88.3158 261° West 219 252 14,000  Level Memphis Center
06:37PM 36.0511 -88.3903 261° West 219 252 14,000  Level Memphis Center
06:38PM 36.0419 -88.4650 261° West 219 252 14,000  Level Memphis Center
06:39PM 36.0325 -88.5372 261° West 219 252 14,000  Level Memphis Center
06:40PM 36.0233 -88.6119 261° West 219 252 14,000  Level Memphis Center
06:41PM 36.0139 -88.6839 261° West 219 252 14,000  Level Memphis Center
06:42PM 36.0022 -88.7586 259° West 219 252 14,000  Level Memphis Center
06:43PM 35.9928 -88.8331 261° West 219 252 14,000  Level Memphis Center
06:44PM 35.9833 -88.9078 261° West 219 252 14,000  Level Memphis Center
06:45PM 35.9736 -88.9822 261° West 224 258 14,000  Level Memphis Center
06:46PM 35.9619 -89.0567 259° West 224 258 14,000  Level Memphis Center
06:47PM 35.9525 -89.1389 262° West 224 258 14,000  Level Memphis Center
06:48PM 35.9447 -89.2136 263° West 224 258 14,000  Level Memphis Center
06:49PM 35.9308 -89.2881 257° West 224 258 14,000  Level Memphis Center
06:50PM 35.9231 -89.3625 263° West 224 258 14,000  Level Memphis Center
06:51PM 35.9153 -89.4394 263° West 224 258 14,000  Level Memphis Center
06:52PM 35.9014 -89.5139 257° West 224 258 14,000  Level Memphis Center
06:53PM 35.8933 -89.5883 262° West 224 258 14,000  Level Memphis Center
06:54PM 35.8856 -89.6653 263° West 224 258 14,000  Level Memphis Center
06:55PM 35.8714 -89.7397 257° West 224 258 14,000  Level Memphis Center
06:56PM 35.8614 -89.8167 261° West 224 258 14,000  Level Memphis Center
06:57PM 35.8511 -89.8908 260° West 224 258 14,000  Level Memphis Center
06:58PM 35.8411 -89.9678 261° West 224 258 14,000  Level Memphis Center
06:59PM 35.8308 -90.0419 260° West 224 258 14,100  Climbing Memphis Center
07:00PM 35.8206 -90.1189 261° West 224 258 14,000 -60 Descending Memphis Center
07:01PM 35.8103 -90.1958 261° West 224 258 14,000  Level Memphis Center
07:02PM 35.7978 -90.2725 259° West 224 258 14,000  Level Memphis Center
07:03PM 35.7875 -90.3442 260° West 224 258 14,100  Climbing Memphis Center
07:04PM 35.7792 -90.4236 263° West 224 258 14,100 -60 Level Memphis Center
07:05PM 35.7686 -90.4978 260° West 224 258 14,000  Descending Memphis Center
07:06PM 35.7561 -90.5719 258° West 224 258 14,100  Climbing Memphis Center
07:07PM 35.7456 -90.6461 260° West 218 251 14,000 -60 Descending Memphis Center
07:08PM 35.7328 -90.7203 258° West 218 251 14,000  Level Memphis Center
07:09PM 35.7242 -90.7969 262° West 218 251 14,000  Level Memphis Center
07:10PM 35.7133 -90.8683 259° West 218 251 14,000  Level Memphis Center
07:11PM 35.7028 -90.9425 260° West 218 251 14,100  Climbing Memphis Center
07:12PM 35.6897 -91.0164 258° West 223 257 14,100 -60 Level Memphis Center
07:13PM 35.6853 -91.0906 266° West 223 257 14,000  Descending Memphis Center
07:14PM 35.6703 -91.1672 256° West 223 257 14,100  Climbing Memphis Center
07:15PM 35.6633 -91.2361 263° West 223 257 14,100  Level Memphis Center
07:16PM 35.6483 -91.3125 256° West 223 257 14,100 -60 Level Memphis Center
07:17PM 35.6372 -91.3864 260° West 217 250 14,000  Descending Memphis Center
07:18PM 35.6283 -91.4631 262° West 223 257 14,100  Climbing Memphis Center
07:19PM 35.6214 -91.5369 263° West 223 257 14,000  Descending Memphis Center
07:20PM 35.6061 -91.6133 256° West 223 257 14,100  Climbing Memphis Center
07:21PM 35.5947 -91.6847 259° West 223 257 14,100  Level Memphis Center
07:22PM 35.5814 -91.7611 258° West 223 257 14,100  Level Memphis Center
07:23PM 35.5681 -91.8347 257° West 223 257 14,100 -60 Level Memphis Center
07:24PM 35.5547 -91.9111 258° West 223 257 14,000 -60 Descending Memphis Center
07:25PM 35.5453 -91.9850 261° West 223 257 14,000  Level Memphis Center
07:26PM 35.5339 -92.0614 260° West 223 257 14,100  Climbing Memphis Center
07:27PM 35.5225 -92.1375 260° West 223 257 14,000  Descending Memphis Center
07:28PM 35.5108 -92.2139 259° West 223 257 14,100  Climbing Memphis Center
07:29PM 35.4972 -92.2875 257° West 223 257 14,100  Level Memphis Center
07:30PM 35.4856 -92.3636 259° West 223 257 14,100  Level Memphis Center
07:31PM 35.4739 -92.4425 260° West 228 262 14,100  Level Memphis Center
07:32PM 35.4603 -92.5161 257° West 228 262 14,100  Level Memphis Center
07:33PM 35.4483 -92.5922 259° West 228 262 14,100 -60 Level Memphis Center
07:34PM 35.4367 -92.6708 260° West 238 274 14,000 -60 Descending Memphis Center
07:35PM 35.4225 -92.7469 257° West 238 274 14,000  Level Memphis Center
07:36PM 35.4106 -92.8256 259° West 238 274 14,100  Climbing Memphis Center
07:37PM 35.3967 -92.9017 257° West 238 274 14,100  Level Memphis Center
07:38PM 35.3869 -92.9650 259° West 238 274 14,100  Level Memphis Center
07:39PM 35.3722 -93.0664 260° West 252 290 14,100  Level Memphis Center
07:40PM 35.3564 -93.1294 253° West 238 274 14,100  Level Memphis Center
07:41PM 35.3358 -93.2025 251° West 238 274 14,100  Level Memphis Center
07:42PM 35.3153 -93.2783 252° West 243 280 14,100  Level Memphis Center
07:43PM 35.2928 -93.3539 250° West 243 280 14,100  Level Memphis Center
07:44PM 35.2719 -93.4319 252° West 243 280 14,100  Level Memphis Center
07:45PM 35.2514 -93.5047 251° West 243 280 14,100  Level Memphis Center
07:46PM 35.2286 -93.5803 250° West 243 280 14,100  Level Memphis Center
07:47PM 35.2100 -93.6558 253° West 243 280 14,100 -60 Level Memphis Center
07:48PM 35.1869 -93.7336 250° West 243 280 14,000 -60 Descending Memphis Center
07:49PM 35.1664 -93.8064 251° West 243 280 14,000  Level Memphis Center
07:50PM 35.1453 -93.8817 251° West 243 280 14,000  Level Memphis Center
07:51PM 35.1264 -93.9597 254° West 243 280 14,100  Climbing Memphis Center
07:52PM 35.1056 -94.0375 252° West 243 280 14,000  Descending Memphis Center
07:53PM 35.0928 -94.1156 259° West 243 280 14,100  Climbing Memphis Center
07:54PM 35.0883 -94.1889 266° West 237 273 14,100  Level Memphis Center
07:55PM 35.0817 -94.2697 264° West 237 273 14,100  Level Memphis Center
07:56PM 35.0667 -94.3503 257° West 237 273 14,100  Level Memphis Center
07:57PM 35.0586 -94.4611 265° West 252 290 14,100  Level Fort Worth Center
07:58PM 35.0500 -94.5375 262° West 241 277 14,100 -60 Level Fort Worth Center
07:59PM 35.0372 -94.6167 259° West 235 270 14,000 -120 Descending Fort Worth Center
08:00PM 35.0286 -94.6931 262° West 235 270 13,900 -480 Descending Fort Worth Center
08:01PM 35.0175 -94.7669 260° West 240 276 13,100 -600 Descending Fort Worth Center
08:02PM 35.0089 -94.8533 263° West 253 291 12,700 -960 Descending Fort Worth Center
08:03PM 34.9981 -94.9425 262° West 253 291 11,300 -1,320 Descending Fort Worth Center
08:04PM 34.9853 -95.0239 259° West 253 291 10,100 -1,080 Descending Fort Worth Center
08:05PM 34.9742 -95.1053 261° West 253 291 9,200 -1,080 Descending Fort Worth Center
08:06PM 34.9692 -95.1764 265° West 248 285 8,000 -1,200 Descending Fort Worth Center
08:07PM 34.9561 -95.2628 260° West 248 285 6,800 -1,260 Descending Fort Worth Center
08:08PM 34.9450 -95.3417 260° West 248 285 5,500 -1,260 Descending Fort Worth Center
08:09PM 34.9358 -95.4203 262° West 248 285 4,400 -1,140 Descending Fort Worth Center